createdAt,value
2022-12-20T00:01:31.369Z,5.00
2022-12-20T00:07:39.462Z,5.10
2022-12-20T00:13:49.931Z,5.20
2022-12-20T00:20:11.556Z,5.30
2022-12-20T00:26:22.571Z,5.30
2022-12-20T00:32:29.559Z,5.30
2022-12-20T00:38:50.389Z,5.20
2022-12-20T00:45:07.532Z,5.20
2022-12-20T00:51:15.633Z,5.20
2022-12-20T00:57:17.810Z,5.20
2022-12-20T01:03:20.232Z,5.10
2022-12-20T01:09:22.173Z,5.10
2022-12-20T01:15:24.081Z,5.10
2022-12-20T01:21:27.383Z,5.10
2022-12-20T01:27:29.389Z,5.30
2022-12-20T01:33:31.282Z,5.30
2022-12-20T01:39:33.118Z,5.40
2022-12-20T01:45:35.184Z,5.40
2022-12-20T01:51:40.818Z,5.50
2022-12-20T01:58:04.931Z,5.40
2022-12-20T02:04:07.445Z,5.30
2022-12-20T02:10:11.781Z,5.20
2022-12-20T02:16:22.032Z,5.20
2022-12-20T02:22:48.516Z,5.30
2022-12-20T02:29:09.645Z,5.30
2022-12-20T02:35:15.052Z,5.20
2022-12-20T02:41:32.447Z,5.20
2022-12-20T02:47:41.591Z,5.10
2022-12-20T02:53:43.837Z,5.30
2022-12-20T02:59:56.377Z,5.40
2022-12-20T03:05:58.476Z,5.50
2022-12-20T03:12:00.746Z,5.40
2022-12-20T03:18:03.780Z,5.30
2022-12-20T03:24:06.616Z,5.40
2022-12-20T03:30:09.178Z,5.60
2022-12-20T03:36:12.953Z,5.70
2022-12-20T03:42:16.293Z,5.80
2022-12-20T03:48:18.170Z,5.80
2022-12-20T03:54:20.037Z,6.00
2022-12-20T04:00:41.130Z,6.00
2022-12-20T04:07:15.076Z,6.00
2022-12-20T04:13:20.795Z,5.90
2022-12-20T04:19:22.836Z,5.90
2022-12-20T04:25:24.941Z,5.90
2022-12-20T04:31:30.718Z,5.90
2022-12-20T04:37:32.747Z,5.80
2022-12-20T04:43:35.331Z,5.90
2022-12-20T04:49:39.187Z,5.80
2022-12-20T04:55:41.974Z,5.80
2022-12-20T05:01:44.257Z,5.90
2022-12-20T05:07:51.622Z,5.90
2022-12-20T05:13:53.757Z,5.90
2022-12-20T05:19:56.717Z,5.90
2022-12-20T05:26:17.645Z,6.00
2022-12-20T05:32:19.631Z,5.90
2022-12-20T05:38:22.843Z,5.90
2022-12-20T05:44:25.113Z,5.80
2022-12-20T05:50:31.565Z,5.90
2022-12-20T05:56:51.762Z,5.80
2022-12-20T06:02:58.936Z,5.70
2022-12-20T06:09:01.313Z,5.80
2022-12-20T06:15:20.590Z,5.90
2022-12-20T06:21:23.329Z,5.90
2022-12-20T06:27:28.073Z,6.00
2022-12-20T06:33:43.422Z,6.00
2022-12-20T06:39:46.503Z,5.90
2022-12-20T06:45:49.297Z,6.00
2022-12-20T06:51:51.398Z,6.00
2022-12-20T06:57:58.119Z,6.00
2022-12-20T07:04:01.146Z,6.00
2022-12-20T07:10:03.165Z,6.10
2022-12-20T07:16:06.093Z,6.20
2022-12-20T07:22:08.079Z,6.20
2022-12-20T07:28:09.899Z,6.10
2022-12-20T07:34:11.978Z,6.00
2022-12-20T07:40:14.869Z,6.10
2022-12-20T07:46:17.275Z,6.10
2022-12-20T07:52:24.754Z,6.00
2022-12-20T07:58:27.507Z,6.00
2022-12-20T08:04:30.983Z,6.00
2022-12-20T08:10:32.979Z,6.10
2022-12-20T08:16:35.116Z,6.10
2022-12-20T08:22:37.013Z,6.10
2022-12-20T08:28:39.019Z,6.00
2022-12-20T08:34:40.841Z,5.90
2022-12-20T08:40:42.699Z,6.00
2022-12-20T08:46:44.655Z,6.20
2022-12-20T08:52:46.557Z,6.40
2022-12-20T08:58:49.025Z,6.60
2022-12-20T09:04:50.926Z,6.80
2022-12-20T09:10:53.322Z,6.90
2022-12-20T09:16:55.260Z,7.00
2022-12-20T09:22:59.799Z,7.00
2022-12-20T09:29:05.196Z,7.10
2022-12-20T09:35:07.329Z,7.10
2022-12-20T09:41:37.294Z,7.20
2022-12-20T09:47:39.352Z,7.40
2022-12-20T09:53:59.633Z,7.50
2022-12-20T10:00:01.564Z,7.60
2022-12-20T10:06:35.632Z,7.80
2022-12-20T10:13:01.667Z,8.00
2022-12-20T10:19:30.454Z,8.10
2022-12-20T10:25:33.976Z,8.20
2022-12-20T10:31:36.550Z,8.30
2022-12-20T10:37:41.390Z,8.50
2022-12-20T10:43:50.257Z,8.60
2022-12-20T10:49:52.080Z,8.50
2022-12-20T10:55:55.133Z,8.60
2022-12-20T11:01:57.100Z,8.70
2022-12-20T11:14:38.063Z,9.00
2022-12-20T11:20:53.470Z,9.10
2022-12-20T11:27:15.235Z,9.00
2022-12-20T11:33:23.397Z,8.80
2022-12-20T11:39:42.486Z,8.60
2022-12-20T11:46:17.023Z,8.60
2022-12-20T11:52:41.400Z,8.60
2022-12-20T11:58:55.871Z,8.60
2022-12-20T12:05:03.135Z,8.60
2022-12-20T12:11:40.001Z,8.60
2022-12-20T12:17:44.500Z,8.70
2022-12-20T12:24:05.826Z,8.70
2022-12-20T12:30:13.641Z,8.60
2022-12-20T12:36:37.309Z,8.60
2022-12-20T12:43:00.668Z,8.60
2022-12-20T12:49:17.655Z,8.70
2022-12-20T12:55:47.203Z,8.90
2022-12-20T13:02:00.598Z,8.90
2022-12-20T13:08:03.149Z,8.90
2022-12-20T13:14:27.244Z,8.90
2022-12-20T13:20:32.094Z,8.80
2022-12-20T13:26:53.012Z,8.70
2022-12-20T13:33:02.863Z,8.60
2022-12-20T13:39:23.124Z,8.50
2022-12-20T13:45:26.214Z,8.50
2022-12-20T13:51:28.765Z,8.50
2022-12-20T13:57:42.694Z,8.30
2022-12-20T14:03:47.959Z,8.30
2022-12-20T14:09:57.176Z,8.30
2022-12-20T14:16:10.556Z,8.20
2022-12-20T14:22:12.726Z,8.40
2022-12-20T14:28:47.330Z,8.30
2022-12-20T14:34:49.253Z,8.20
2022-12-20T14:40:54.131Z,8.00
2022-12-20T14:47:15.503Z,7.90
2022-12-20T14:53:25.131Z,7.90
2022-12-20T14:59:29.457Z,7.80
2022-12-20T15:05:35.111Z,7.80
2022-12-20T15:11:38.080Z,7.80
2022-12-20T15:17:39.831Z,7.80
2022-12-20T15:23:48.466Z,7.90
2022-12-20T15:29:50.316Z,7.80
2022-12-20T15:35:52.979Z,7.60
2022-12-20T15:41:54.803Z,7.60
2022-12-20T15:47:56.530Z,7.50
2022-12-20T15:54:00.430Z,7.50
2022-12-20T16:00:03.915Z,7.50
2022-12-20T16:06:14.924Z,7.40
2022-12-20T16:12:21.377Z,7.40
2022-12-20T16:18:23.237Z,7.30
2022-12-20T16:24:25.059Z,7.20
2022-12-20T16:30:27.615Z,7.20
2022-12-20T16:36:30.025Z,7.30
2022-12-20T16:42:31.854Z,7.10
2022-12-20T16:48:33.814Z,7.10
2022-12-20T16:54:36.353Z,7.00
2022-12-20T17:00:38.328Z,7.00
2022-12-20T17:06:40.344Z,7.00
2022-12-20T17:12:42.092Z,7.00
2022-12-20T17:18:46.260Z,7.10
2022-12-20T17:24:48.062Z,7.20
2022-12-20T17:30:50.530Z,7.20
2022-12-20T17:36:55.179Z,7.10
2022-12-20T17:42:57.051Z,7.00
2022-12-20T17:48:59.051Z,7.00
2022-12-20T17:55:00.852Z,6.90
2022-12-20T18:01:03.599Z,6.90
2022-12-20T18:07:05.633Z,6.80
2022-12-20T18:13:07.381Z,6.80
2022-12-20T18:19:19.094Z,6.90
2022-12-20T18:25:20.902Z,6.90
2022-12-20T18:31:26.101Z,7.00
2022-12-20T18:37:28.800Z,7.00
2022-12-20T18:43:32.493Z,7.00
2022-12-20T18:49:34.807Z,6.90
2022-12-20T18:55:37.940Z,6.90
2022-12-20T19:01:43.035Z,6.80
2022-12-20T19:07:45.314Z,6.80
2022-12-20T19:13:47.885Z,6.80
2022-12-20T19:19:50.349Z,6.80
2022-12-20T19:25:52.223Z,6.80
2022-12-20T19:31:54.045Z,6.90
2022-12-20T19:37:57.009Z,7.00
2022-12-20T19:43:59.610Z,7.10
2022-12-20T19:50:01.403Z,7.10
2022-12-20T19:56:04.099Z,7.00
2022-12-20T20:02:06.609Z,7.00
2022-12-20T20:08:09.546Z,7.00
2022-12-20T20:14:11.334Z,7.00
2022-12-20T20:20:13.882Z,7.00
2022-12-20T20:26:18.777Z,6.90
2022-12-20T20:32:20.606Z,6.90
2022-12-20T20:38:23.222Z,6.90
2022-12-20T20:44:25.063Z,6.90
2022-12-20T20:50:26.863Z,7.00
2022-12-20T20:56:28.740Z,7.10
2022-12-20T21:02:31.865Z,7.10
2022-12-20T21:08:33.995Z,7.00
2022-12-20T21:15:10.517Z,7.00
2022-12-20T21:20:59.598Z,7.10
2022-12-20T21:27:19.965Z,6.90
2022-12-20T21:33:21.778Z,6.90
2022-12-20T21:39:24.655Z,6.90
2022-12-20T21:45:26.458Z,6.80
2022-12-20T21:51:29.425Z,6.70
2022-12-20T21:57:31.288Z,6.80
2022-12-20T22:03:33.294Z,6.80
2022-12-20T22:09:35.394Z,6.80
2022-12-20T22:15:38.268Z,6.80
2022-12-20T22:21:40.171Z,6.80
2022-12-20T22:27:41.925Z,6.80
2022-12-20T22:33:44.687Z,6.70
2022-12-20T22:39:46.658Z,6.70
2022-12-20T22:45:59.513Z,6.60
2022-12-20T22:52:07.355Z,6.60
2022-12-20T22:58:09.900Z,6.60
2022-12-20T23:04:12.373Z,6.50
2022-12-20T23:10:37.019Z,6.50
2022-12-20T23:16:39.021Z,6.40
2022-12-20T23:22:41.089Z,6.40
2022-12-20T23:28:45.118Z,6.40
2022-12-20T23:34:47.177Z,6.40
2022-12-20T23:40:49.085Z,6.40
2022-12-20T23:46:51.167Z,6.40
2022-12-20T23:52:53.119Z,6.40
2022-12-20T23:58:55.962Z,6.50
